Time;durP1;ratioP1;P1;durP2;ratioP2;P2;SDS_P1;SDS_P2;PMS_P1;PMS_P2;Temp;Humidity;BMP_temperature;BMP_pressure;BME280_temperature;BME280_humidity;BME280_pressure;Samples;Min_cycle;Max_cycle;Signal;HPM_P1;HPM_P2
2022/04/13 00:02:31;;;;;;;5.07;2.67;;;;;;;;;;5005925;28;20500;-73
2022/04/13 00:05:03;;;;;;;4.90;3.13;;;;;;;;;;5025741;28;21151;-75
2022/04/13 00:07:29;;;;;;;4.27;2.80;;;;;;;;;;5007311;28;20472;-75
2022/04/13 00:09:57;;;;;;;4.53;2.43;;;;;;;;;;5027678;28;20483;-74
2022/04/13 00:12:47;;;;;;;4.93;3.20;;;;;;;;;;5002467;28;20942;-75
2022/04/13 00:15:13;;;;;;;3.37;2.87;;;;;;;;;;5017449;28;20505;-74
2022/04/13 00:17:39;;;;;;;3.83;2.93;;;;;;;;;;5008227;28;20457;-75
2022/04/13 00:20:05;;;;;;;2.70;2.40;;;;;;;;;;5021697;28;21116;-74
2022/04/13 00:22:57;;;;;;;4.93;2.37;;;;;;;;;;4992951;28;20683;-74
2022/04/13 00:25:24;;;;;;;5.63;2.90;;;;;;;;;;5002801;28;20463;-74
2022/04/13 00:27:56;;;;;;;3.13;2.63;;;;;;;;;;5017346;28;21124;-75
2022/04/13 00:30:22;;;;;;;4.27;2.80;;;;;;;;;;5007542;28;20507;-72
2022/04/13 00:32:48;;;;;;;3.60;2.60;;;;;;;;;;5002252;28;20526;-74
2022/04/13 00:35:15;;;;;;;3.93;2.77;;;;;;;;;;5019397;28;21267;-74
2022/04/13 00:37:43;;;;;;;3.47;2.67;;;;;;;;;;4992818;28;20223;-73
2022/04/13 00:40:09;;;;;;;4.40;2.77;;;;;;;;;;5025528;28;20513;-73
2022/04/13 00:42:38;;;;;;;4.37;2.97;;;;;;;;;;5026973;28;21036;-74
2022/04/13 00:45:04;;;;;;;3.27;2.50;;;;;;;;;;5018789;28;20452;-75
2022/04/13 00:47:30;;;;;;;7.20;2.97;;;;;;;;;;5005412;28;20443;-74
2022/04/13 00:49:56;;;;;;;5.40;2.90;;;;;;;;;;5017726;28;20479;-73
2022/04/13 00:52:23;;;;;;;5.40;2.67;;;;;;;;;;4991259;28;21201;-74
2022/04/13 00:54:49;;;;;;;3.40;2.07;;;;;;;;;;5037834;28;20436;-73
2022/04/13 00:57:44;;;;;;;3.97;2.27;;;;;;;;;;5009115;28;20449;-75
2022/04/13 01:00:10;;;;;;;3.80;2.20;;;;;;;;;;5021672;28;20438;-74
2022/04/13 01:02:36;;;;;;;4.50;3.10;;;;;;;;;;4999581;28;21031;-73
2022/04/13 01:05:03;;;;;;;5.73;2.23;;;;;;;;;;5017071;28;20445;-74
2022/04/13 01:07:29;;;;;;;2.37;2.07;;;;;;;;;;4990384;28;20445;-74
2022/04/13 01:09:56;;;;;;;3.90;2.90;;;;;;;;;;5011802;28;20503;-73
2022/04/13 01:12:21;;;;;;;2.93;2.60;;;;;;;;;;4992970;28;20453;-72
2022/04/13 01:14:47;;;;;;;4.33;2.37;;;;;;;;;;5020359;28;20440;-73
2022/04/13 01:17:38;;;;;;;2.43;2.13;;;;;;;;;;5010582;28;20526;-76
2022/04/13 01:20:07;;;;;;;9.50;2.90;;;;;;;;;;5031482;28;20444;-73
2022/04/13 01:22:33;;;;;;;2.60;2.27;;;;;;;;;;5005081;28;20431;-76
2022/04/13 01:25:06;;;;;;;2.90;2.50;;;;;;;;;;5005861;28;20444;-73
2022/04/13 01:27:43;;;;;;;3.50;2.50;;;;;;;;;;5000473;28;20440;-74
2022/04/13 01:30:09;;;;;;;4.07;2.23;;;;;;;;;;5034945;28;20482;-73
2022/04/13 01:36:00;;;;;;;4.73;2.40;;;;;;;;;;5023580;28;20446;-73
2022/04/13 01:38:35;;;;;;;3.20;2.37;;;;;;;;;;5023839;28;20448;-74
2022/04/13 01:41:08;;;;;;;3.30;3.00;;;;;;;;;;5023617;28;20493;-74
2022/04/13 01:43:34;;;;;;;5.50;2.87;;;;;;;;;;5018935;28;21122;-74
2022/04/13 01:46:00;;;;;;;4.10;2.93;;;;;;;;;;5021339;28;20439;-74
2022/04/13 01:49:03;;;;;;;3.00;2.17;;;;;;;;;;5003434;28;20929;-74
2022/04/13 01:51:34;;;;;;;2.47;2.00;;;;;;;;;;5014767;28;20786;-73
2022/04/13 01:54:00;;;;;;;2.43;2.23;;;;;;;;;;5001625;28;20653;-73
2022/04/13 01:56:29;;;;;;;7.30;2.00;;;;;;;;;;5021624;28;20761;-73
2022/04/13 01:58:55;;;;;;;3.70;2.10;;;;;;;;;;5010417;28;20455;-73
2022/04/13 02:01:35;;;;;;;;;;;;;;;;;;;;;
2022/04/13 02:04:30;;;;;;;3.63;2.20;;;;;;;;;;5010272;28;20460;-74
2022/04/13 02:07:00;;;;;;;2.30;2.10;;;;;;;;;;5022395;28;20774;-74
2022/04/13 02:09:27;;;;;;;2.90;2.00;;;;;;;;;;5014731;28;20829;-73
2022/04/13 02:14:39;;;;;;;5.90;2.33;;;;;;;;;;4995440;28;20566;-74
2022/04/13 02:17:05;;;;;;;4.60;4.20;;;;;;;;;;5017605;28;20551;-74
2022/04/13 02:20:03;;;;;;;3.30;2.83;;;;;;;;;;5006310;28;20260;-74
2022/04/13 02:22:29;;;;;;;4.60;2.70;;;;;;;;;;4996231;28;20502;-74
2022/04/13 02:24:55;;;;;;;5.20;2.57;;;;;;;;;;5022155;28;20431;-75
2022/04/13 02:27:21;;;;;;;4.97;2.50;;;;;;;;;;5007584;28;20485;-74
2022/04/13 02:29:49;;;;;;;3.07;2.27;;;;;;;;;;5008139;28;20537;-74
2022/04/13 02:32:15;;;;;;;3.83;2.20;;;;;;;;;;5028758;28;20527;-74
2022/04/13 02:34:51;;;;;;;3.07;2.20;;;;;;;;;;5019814;28;20602;-73
2022/04/13 02:37:17;;;;;;;6.53;2.23;;;;;;;;;;5022882;28;20459;-74
2022/04/13 02:39:46;;;;;;;6.10;2.57;;;;;;;;;;5008468;28;20489;-74
2022/04/13 02:42:14;;;;;;;3.97;3.57;;;;;;;;;;5012323;28;20810;-75
2022/04/13 02:44:44;;;;;;;2.63;2.00;;;;;;;;;;4995671;28;20552;-76
2022/04/13 02:47:10;;;;;;;4.73;2.60;;;;;;;;;;5022170;28;20959;-75
2022/04/13 02:49:48;;;;;;;3.40;2.50;;;;;;;;;;5008962;28;20483;-74
2022/04/13 02:52:14;;;;;;;4.73;2.73;;;;;;;;;;5025603;28;20440;-75
2022/04/13 02:54:40;;;;;;;4.27;2.20;;;;;;;;;;5003452;28;20493;-75
2022/04/13 02:57:14;;;;;;;3.70;2.40;;;;;;;;;;5023569;28;20427;-73
2022/04/13 02:59:40;;;;;;;3.90;2.60;;;;;;;;;;5008522;28;20431;-75
2022/04/13 03:02:07;;;;;;;4.07;3.00;;;;;;;;;;5015250;28;20956;-74
2022/04/13 03:04:34;;;;;;;2.80;2.40;;;;;;;;;;4997889;28;20450;-75
2022/04/13 03:07:09;;;;;;;5.53;2.73;;;;;;;;;;5026380;28;20561;-74
2022/04/13 03:09:35;;;;;;;3.47;2.90;;;;;;;;;;5017750;28;20483;-74
2022/04/13 03:12:01;;;;;;;6.27;2.70;;;;;;;;;;5023080;28;21039;-74
2022/04/13 03:14:27;;;;;;;4.30;2.83;;;;;;;;;;4988027;28;20517;-73
2022/04/13 03:16:53;;;;;;;2.90;2.57;;;;;;;;;;5023449;28;20431;-74
2022/04/13 03:19:19;;;;;;;5.93;3.50;;;;;;;;;;4993637;28;20526;-74
2022/04/13 03:21:53;;;;;;;3.80;3.10;;;;;;;;;;5025337;28;20485;-74
2022/04/13 03:24:22;;;;;;;3.13;2.20;;;;;;;;;;4987557;28;20464;-74
2022/04/13 03:26:52;;;;;;;5.50;2.80;;;;;;;;;;5008305;28;20444;-73
2022/04/13 03:29:18;;;;;;;3.70;2.57;;;;;;;;;;4995431;28;20471;-74
2022/04/13 03:32:14;;;;;;;5.20;2.97;;;;;;;;;;5020307;28;20931;-75
2022/04/13 03:34:40;;;;;;;6.67;4.77;;;;;;;;;;5000832;28;20994;-74
2022/04/13 03:37:06;;;;;;;14.40;8.10;;;;;;;;;;5018852;28;20443;-74
2022/04/13 03:39:32;;;;;;;15.53;9.03;;;;;;;;;;5013449;28;20459;-73
2022/04/13 03:41:58;;;;;;;9.13;6.20;;;;;;;;;;5022809;28;20454;-73
2022/04/13 03:44:24;;;;;;;7.07;4.97;;;;;;;;;;4996392;28;20515;-74
2022/04/13 03:46:50;;;;;;;11.17;5.60;;;;;;;;;;5020763;28;20441;-74
2022/04/13 03:49:16;;;;;;;10.00;7.00;;;;;;;;;;4989367;28;20467;-74
2022/04/13 03:51:42;;;;;;;10.30;7.33;;;;;;;;;;5013303;28;20451;-73
2022/04/13 03:54:08;;;;;;;14.23;9.87;;;;;;;;;;4988339;28;20434;-73
2022/04/13 03:56:36;;;;;;;17.30;11.20;;;;;;;;;;5012958;28;20518;-74
2022/04/13 03:59:02;;;;;;;16.93;10.90;;;;;;;;;;5007429;28;20428;-73
2022/04/13 04:01:28;;;;;;;18.97;9.73;;;;;;;;;;5007278;28;20497;-74
2022/04/13 04:04:24;;;;;;;12.00;9.73;;;;;;;;;;5007844;28;22305;-75
2022/04/13 04:06:50;;;;;;;15.73;7.73;;;;;;;;;;5020132;28;20872;-73
2022/04/13 04:09:20;;;;;;;11.83;8.50;;;;;;;;;;4999248;28;20476;-75
2022/04/13 04:11:49;;;;;;;13.10;8.63;;;;;;;;;;5020604;28;20954;-74
2022/04/13 04:14:25;;;;;;;13.57;8.63;;;;;;;;;;5008250;28;20436;-74
2022/04/13 04:16:52;;;;;;;9.30;5.57;;;;;;;;;;5028924;28;20454;-73
2022/04/13 04:19:32;;;;;;;9.03;5.30;;;;;;;;;;5000012;28;20456;-74
2022/04/13 04:21:58;;;;;;;6.97;4.97;;;;;;;;;;5018037;28;20531;-74
2022/04/13 04:24:54;;;;;;;15.00;5.60;;;;;;;;;;5003645;28;20529;-75
2022/04/13 04:27:20;;;;;;;7.83;4.57;;;;;;;;;;5008687;28;20458;-74
2022/04/13 04:29:46;;;;;;;6.30;5.10;;;;;;;;;;4996016;28;20483;-74
2022/04/13 04:32:18;;;;;;;7.00;5.90;;;;;;;;;;5020119;28;20870;-74
2022/04/13 04:34:46;;;;;;;9.67;4.20;;;;;;;;;;5006016;28;20443;-74
2022/04/13 04:37:12;;;;;;;6.73;4.23;;;;;;;;;;5004802;28;20466;-76
2022/04/13 04:39:44;;;;;;;4.73;4.20;;;;;;;;;;5017044;28;20446;-74
2022/04/13 04:42:11;;;;;;;5.83;3.40;;;;;;;;;;5000967;28;20424;-74
2022/04/13 04:44:38;;;;;;;4.83;4.20;;;;;;;;;;5011355;28;20526;-73
2022/04/13 04:47:05;;;;;;;7.97;3.87;;;;;;;;;;4990011;28;20456;-75
2022/04/13 04:49:35;;;;;;;6.03;3.40;;;;;;;;;;5010976;28;20955;-73
2022/04/13 04:52:01;;;;;;;5.20;3.67;;;;;;;;;;4990853;28;20449;-74
2022/04/13 04:54:27;;;;;;;4.97;4.17;;;;;;;;;;5014667;28;21747;-74
2022/04/13 04:56:53;;;;;;;7.60;5.27;;;;;;;;;;4987832;28;20436;-73
2022/04/13 04:59:19;;;;;;;9.53;4.43;;;;;;;;;;5015236;28;20994;-72
2022/04/13 05:01:45;;;;;;;7.10;5.03;;;;;;;;;;5005509;28;20463;-72
2022/04/13 05:04:11;;;;;;;5.50;3.80;;;;;;;;;;5010072;28;20185;-73
2022/04/13 05:06:37;;;;;;;7.50;4.93;;;;;;;;;;5000141;28;20555;-71
2022/04/13 05:09:03;;;;;;;9.17;5.17;;;;;;;;;;5009177;28;21145;-73
2022/04/13 05:11:29;;;;;;;10.20;4.53;;;;;;;;;;4992826;28;20945;-72
2022/04/13 05:13:55;;;;;;;6.53;4.03;;;;;;;;;;5012924;28;20890;-73
2022/04/13 05:16:22;;;;;;;6.87;4.50;;;;;;;;;;5008778;28;20462;-73
2022/04/13 05:18:48;;;;;;;6.77;4.93;;;;;;;;;;5017205;28;20431;-74
2022/04/13 05:21:14;;;;;;;7.10;4.60;;;;;;;;;;5017924;28;20525;-74
2022/04/13 05:23:41;;;;;;;10.00;4.90;;;;;;;;;;4999111;28;20440;-74
2022/04/13 05:26:35;;;;;;;12.10;6.73;;;;;;;;;;5001025;28;22488;-74
2022/04/13 05:29:01;;;;;;;9.80;6.30;;;;;;;;;;5013639;28;20437;-74
2022/04/13 05:31:47;;;;;;;8.10;6.00;;;;;;;;;;5001420;28;20534;-75
2022/04/13 05:37:06;;;;;;;11.33;4.63;;;;;;;;;;5010493;28;20483;-74
2022/04/13 05:39:49;;;;;;;9.73;5.33;;;;;;;;;;5018623;28;20516;-74
2022/04/13 05:42:55;;;;;;;11.20;5.37;;;;;;;;;;5013326;28;20478;-73
2022/04/13 05:45:25;;;;;;;5.57;4.83;;;;;;;;;;5017526;28;20513;-72
2022/04/13 05:48:16;;;;;;;7.87;4.40;;;;;;;;;;5018190;28;20428;-74
2022/04/13 05:51:20;;;;;;;7.53;4.60;;;;;;;;;;5010961;28;20808;-76
2022/04/13 05:53:46;;;;;;;9.50;5.30;;;;;;;;;;5009164;28;20463;-74
2022/04/13 05:56:13;;;;;;;7.13;4.60;;;;;;;;;;5002226;28;20588;-74
2022/04/13 05:58:39;;;;;;;7.80;5.30;;;;;;;;;;5000567;28;20623;-79
2022/04/13 06:01:05;;;;;;;12.53;6.43;;;;;;;;;;4982177;28;21295;-79
2022/04/13 06:06:43;;;;;;;10.87;6.70;;;;;;;;;;4977642;28;20447;-77
2022/04/13 06:09:09;;;;;;;9.80;6.43;;;;;;;;;;5023401;28;21203;-78
2022/04/13 06:11:35;;;;;;;12.03;4.90;;;;;;;;;;5003354;28;20448;-77
2022/04/13 06:14:02;;;;;;;9.70;4.67;;;;;;;;;;4998970;28;20439;-77
2022/04/13 06:16:28;;;;;;;12.57;5.80;;;;;;;;;;4982808;28;20447;-78
2022/04/13 06:18:54;;;;;;;7.80;4.47;;;;;;;;;;5018545;28;20436;-78
2022/04/13 06:21:20;;;;;;;6.13;4.40;;;;;;;;;;5008082;28;20578;-74
2022/04/13 06:23:47;;;;;;;11.60;4.67;;;;;;;;;;5020479;28;20509;-74
2022/04/13 06:26:13;;;;;;;10.33;4.47;;;;;;;;;;4984193;28;20444;-75
2022/04/13 06:28:39;;;;;;;6.97;4.50;;;;;;;;;;5017415;28;20439;-75
2022/04/13 06:31:39;;;;;;;7.93;4.93;;;;;;;;;;4998599;28;20569;-76
2022/04/13 06:34:05;;;;;;;11.33;5.33;;;;;;;;;;4998281;28;20306;-75
2022/04/13 06:37:09;;;;;;;6.30;5.70;;;;;;;;;;5006074;28;20556;-76
2022/04/13 06:39:35;;;;;;;8.23;4.40;;;;;;;;;;5019263;28;20439;-76
2022/04/13 06:42:01;;;;;;;10.23;4.97;;;;;;;;;;5007741;28;20479;-76
2022/04/13 06:44:28;;;;;;;5.10;4.10;;;;;;;;;;5024063;28;20897;-75
2022/04/13 06:46:54;;;;;;;6.23;3.77;;;;;;;;;;5009090;28;20514;-74
2022/04/13 06:49:20;;;;;;;4.70;3.40;;;;;;;;;;5023686;28;20469;-75
2022/04/13 06:51:46;;;;;;;5.43;3.17;;;;;;;;;;5001514;28;20726;-75
2022/04/13 06:54:12;;;;;;;14.37;3.83;;;;;;;;;;5028927;28;20458;-75
2022/04/13 06:56:39;;;;;;;8.80;4.20;;;;;;;;;;5009191;28;20482;-74
2022/04/13 06:59:05;;;;;;;6.60;3.70;;;;;;;;;;5029672;28;20446;-75
2022/04/13 07:01:32;;;;;;;4.93;3.53;;;;;;;;;;5008649;28;20443;-76
2022/04/13 07:04:19;;;;;;;6.17;4.67;;;;;;;;;;5027130;28;20512;-75
2022/04/13 07:06:45;;;;;;;8.07;3.30;;;;;;;;;;5005257;28;20695;-76
2022/04/13 07:09:10;;;;;;;4.73;3.67;;;;;;;;;;5025148;28;20479;-76
2022/04/13 07:11:36;;;;;;;4.17;3.67;;;;;;;;;;5006421;28;20435;-76
2022/04/13 07:14:02;;;;;;;6.43;3.50;;;;;;;;;;5027748;28;20451;-76
2022/04/13 07:16:28;;;;;;;6.47;3.43;;;;;;;;;;5006908;28;20442;-76
2022/04/13 07:18:55;;;;;;;7.43;3.47;;;;;;;;;;5021511;28;20531;-76
2022/04/13 07:21:21;;;;;;;8.27;3.77;;;;;;;;;;5009020;28;20495;-73
2022/04/13 07:23:57;;;;;;;10.93;3.80;;;;;;;;;;5020243;28;20448;-76
2022/04/13 07:26:24;;;;;;;4.57;3.50;;;;;;;;;;5025145;28;20486;-76
2022/04/13 07:28:50;;;;;;;5.27;3.43;;;;;;;;;;5025579;28;20443;-76
2022/04/13 07:31:56;;;;;;;4.30;3.77;;;;;;;;;;5007820;28;20491;-76
2022/04/13 07:34:23;;;;;;;10.17;4.30;;;;;;;;;;5002046;28;20447;-76
2022/04/13 07:37:03;;;;;;;9.27;4.23;;;;;;;;;;5015524;28;20459;-75
2022/04/13 07:39:50;;;;;;;8.23;4.67;;;;;;;;;;4998540;28;20450;-78
2022/04/13 07:42:22;;;;;;;6.70;3.80;;;;;;;;;;5019448;28;20538;-75
2022/04/13 07:44:49;;;;;;;5.40;3.87;;;;;;;;;;5022206;28;20451;-76
2022/04/13 07:47:15;;;;;;;6.73;4.30;;;;;;;;;;5021495;28;20459;-75
2022/04/13 07:49:43;;;;;;;5.83;3.97;;;;;;;;;;5003892;28;20479;-74
2022/04/13 07:52:10;;;;;;;5.60;4.27;;;;;;;;;;5012668;28;20530;-74
2022/04/13 07:54:36;;;;;;;8.30;3.90;;;;;;;;;;5010872;28;20609;-75
2022/04/13 07:57:02;;;;;;;6.70;3.50;;;;;;;;;;5022814;28;20454;-76
2022/04/13 07:59:29;;;;;;;5.00;3.70;;;;;;;;;;5019308;28;20540;-75
2022/04/13 08:01:55;;;;;;;6.93;3.90;;;;;;;;;;5019826;28;20960;-76
2022/04/13 08:07:25;;;;;;;7.07;4.70;;;;;;;;;;5012335;28;20761;-75
2022/04/13 08:09:51;;;;;;;8.93;4.90;;;;;;;;;;5023825;28;20961;-75
2022/04/13 08:12:18;;;;;;;10.07;5.50;;;;;;;;;;4998697;28;20439;-75
2022/04/13 08:14:46;;;;;;;5.47;3.67;;;;;;;;;;5023136;28;20575;-75
2022/04/13 08:17:13;;;;;;;11.33;5.40;;;;;;;;;;5014655;28;20834;-75
2022/04/13 08:19:38;;;;;;;7.57;4.90;;;;;;;;;;5021104;28;20436;-74
2022/04/13 08:22:04;;;;;;;7.53;5.07;;;;;;;;;;5001770;28;20440;-75
2022/04/13 08:24:30;;;;;;;11.83;5.10;;;;;;;;;;5025839;28;20444;-78
2022/04/13 08:27:00;;;;;;;7.40;4.80;;;;;;;;;;5006854;28;20864;-75
2022/04/13 08:29:26;;;;;;;8.20;5.87;;;;;;;;;;5017460;28;21015;-74
2022/04/13 08:31:52;;;;;;;10.80;4.63;;;;;;;;;;5006859;28;20574;-74
2022/04/13 08:34:18;;;;;;;5.87;2.90;;;;;;;;;;5019763;28;20431;-75
2022/04/13 08:37:20;;;;;;;8.40;5.10;;;;;;;;;;5015045;28;20458;-74
2022/04/13 08:39:46;;;;;;;10.53;2.77;;;;;;;;;;5017066;28;20725;-75
2022/04/13 08:45:20;;;;;;;3.40;2.50;;;;;;;;;;5014269;28;20864;-75
2022/04/13 08:48:29;;;;;;;6.23;2.77;;;;;;;;;;5001737;28;20451;-76
2022/04/13 08:50:59;;;;;;;6.80;2.97;;;;;;;;;;5014810;28;20546;-75
2022/04/13 08:53:26;;;;;;;4.67;3.47;;;;;;;;;;5002306;28;21056;-75
2022/04/13 08:55:53;;;;;;;5.83;2.60;;;;;;;;;;5020272;28;20432;-75
2022/04/13 08:58:30;;;;;;;3.20;2.27;;;;;;;;;;4997201;28;21010;-76
2022/04/13 09:00:58;;;;;;;5.30;2.53;;;;;;;;;;5021781;28;20462;-75
2022/04/13 09:03:27;;;;;;;3.33;2.87;;;;;;;;;;4989348;28;20451;-75
2022/04/13 09:05:55;;;;;;;6.23;2.03;;;;;;;;;;5028994;28;20447;-74
2022/04/13 09:08:22;;;;;;;6.80;2.40;;;;;;;;;;4999823;28;20834;-75
2022/04/13 09:10:48;;;;;;;5.37;1.47;;;;;;;;;;5023546;28;20482;-75
2022/04/13 09:13:26;;;;;;;4.23;1.90;;;;;;;;;;5001395;28;20524;-76
2022/04/13 09:15:53;;;;;;;8.33;3.03;;;;;;;;;;5023104;28;20448;-75
2022/04/13 09:18:19;;;;;;;14.07;3.13;;;;;;;;;;5014087;28;20429;-76
2022/04/13 09:20:45;;;;;;;4.77;2.67;;;;;;;;;;5025754;28;20431;-75
2022/04/13 09:23:12;;;;;;;5.57;2.73;;;;;;;;;;4998867;28;20439;-74
2022/04/13 09:25:38;;;;;;;4.70;2.97;;;;;;;;;;5022307;28;20439;-75
2022/04/13 09:28:04;;;;;;;4.83;3.40;;;;;;;;;;5017637;28;20717;-75
2022/04/13 09:30:31;;;;;;;7.33;3.67;;;;;;;;;;5024210;28;20990;-75
2022/04/13 09:32:58;;;;;;;5.47;2.50;;;;;;;;;;4992911;28;20456;-76
2022/04/13 09:35:24;;;;;;;5.27;2.50;;;;;;;;;;5045573;28;20443;-76
2022/04/13 09:37:50;;;;;;;3.20;2.23;;;;;;;;;;5021650;28;20620;-76
2022/04/13 09:40:28;;;;;;;4.73;2.80;;;;;;;;;;5020312;28;20423;-76
2022/04/13 09:43:21;;;;;;;4.23;2.60;;;;;;;;;;5003856;28;20859;-76
2022/04/13 09:45:51;;;;;;;5.13;2.67;;;;;;;;;;5030364;28;20528;-75
2022/04/13 09:48:23;;;;;;;4.93;2.07;;;;;;;;;;5001405;28;20552;-75
2022/04/13 09:50:50;;;;;;;4.90;2.00;;;;;;;;;;5021919;28;20473;-74
2022/04/13 09:53:16;;;;;;;6.30;1.93;;;;;;;;;;4995767;28;20940;-75
2022/04/13 09:55:43;;;;;;;6.60;2.43;;;;;;;;;;5027351;28;20444;-75
2022/04/13 09:58:15;;;;;;;3.50;2.20;;;;;;;;;;5001441;28;21114;-74
2022/04/13 10:00:42;;;;;;;5.20;2.50;;;;;;;;;;5008909;28;20455;-77
2022/04/13 10:03:19;;;;;;;4.20;2.30;;;;;;;;;;5011761;28;20435;-74
2022/04/13 10:05:46;;;;;;;5.43;2.30;;;;;;;;;;5008610;28;20440;-75
2022/04/13 10:08:13;;;;;;;5.13;2.20;;;;;;;;;;5021283;28;20443;-75
2022/04/13 10:10:42;;;;;;;5.60;2.50;;;;;;;;;;5015787;28;20491;-76
2022/04/13 10:13:10;;;;;;;4.60;2.37;;;;;;;;;;5017796;28;20944;-76
2022/04/13 10:15:36;;;;;;;5.40;2.00;;;;;;;;;;5029337;28;20490;-75
2022/04/13 10:18:32;;;;;;;2.93;1.50;;;;;;;;;;5015771;28;20443;-78
2022/04/13 10:21:08;;;;;;;5.00;2.07;;;;;;;;;;5013095;28;20204;-76
2022/04/13 10:23:41;;;;;;;2.83;2.07;;;;;;;;;;5002181;28;20496;-75
2022/04/13 10:26:08;;;;;;;5.83;2.47;;;;;;;;;;5011040;28;20462;-75
2022/04/13 10:29:08;;;;;;;6.23;2.27;;;;;;;;;;5009550;28;20432;-76
2022/04/13 10:31:34;;;;;;;2.90;2.30;;;;;;;;;;5029116;28;20632;-74
2022/04/13 10:34:00;;;;;;;4.60;1.93;;;;;;;;;;5045196;28;20787;-76
2022/04/13 10:36:26;;;;;;;5.50;2.53;;;;;;;;;;5025583;28;20791;-75
2022/04/13 10:38:58;;;;;;;5.80;2.03;;;;;;;;;;5002368;28;20642;-74
2022/04/13 10:41:24;;;;;;;4.43;2.77;;;;;;;;;;5022869;28;20431;-76
2022/04/13 10:44:09;;;;;;;3.63;2.03;;;;;;;;;;5038423;28;20825;-76
2022/04/13 10:46:35;;;;;;;5.47;2.00;;;;;;;;;;5022302;28;20262;-76
2022/04/13 10:49:17;;;;;;;3.53;2.07;;;;;;;;;;5000363;28;20819;-76
2022/04/13 10:51:44;;;;;;;6.30;2.00;;;;;;;;;;5015333;28;20443;-77
2022/04/13 10:54:10;;;;;;;7.13;2.30;;;;;;;;;;5001221;28;20785;-75
2022/04/13 10:56:36;;;;;;;4.93;1.90;;;;;;;;;;5020431;28;20444;-77
2022/04/13 10:59:02;;;;;;;8.73;2.30;;;;;;;;;;5005017;28;20728;-76
2022/04/13 11:01:44;;;;;;;4.00;2.47;;;;;;;;;;5005621;28;22364;-78
2022/04/13 11:04:24;;;;;;;6.30;2.20;;;;;;;;;;5025221;28;20436;-74
2022/04/13 11:06:50;;;;;;;4.80;2.43;;;;;;;;;;5010528;28;20825;-74
2022/04/13 11:09:28;;;;;;;6.40;2.43;;;;;;;;;;5016733;28;21057;-76
2022/04/13 11:11:59;;;;;;;4.10;1.80;;;;;;;;;;5004418;28;20452;-76
2022/04/13 11:14:59;;;;;;;3.80;2.10;;;;;;;;;;5014108;28;20440;-76
2022/04/13 11:17:28;;;;;;;7.60;2.50;;;;;;;;;;5028240;28;21134;-76
2022/04/13 11:20:13;;;;;;;2.90;2.00;;;;;;;;;;5004729;28;20548;-75
2022/04/13 11:22:39;;;;;;;5.73;2.53;;;;;;;;;;5019351;28;20730;-74
2022/04/13 11:25:06;;;;;;;5.50;2.20;;;;;;;;;;5014715;28;21169;-77
2022/04/13 11:27:51;;;;;;;3.13;2.10;;;;;;;;;;5030598;28;20448;-75
2022/04/13 11:30:51;;;;;;;7.47;2.07;;;;;;;;;;5050250;28;20544;-76
2022/04/13 11:33:19;;;;;;;7.63;2.77;;;;;;;;;;5013063;28;20960;-75
2022/04/13 11:35:55;;;;;;;4.63;2.17;;;;;;;;;;5009246;28;20859;-77
2022/04/13 11:38:21;;;;;;;3.40;2.43;;;;;;;;;;5008125;28;20446;-77
2022/04/13 11:41:08;;;;;;;4.70;2.30;;;;;;;;;;4989760;28;21122;-76
2022/04/13 11:43:35;;;;;;;4.60;2.10;;;;;;;;;;5021621;28;20700;-76
2022/04/13 11:46:19;;;;;;;4.47;2.63;;;;;;;;;;5010205;28;20514;-75
2022/04/13 11:48:45;;;;;;;2.63;2.13;;;;;;;;;;5022986;28;20440;-76
2022/04/13 11:54:15;;;;;;;4.97;2.30;;;;;;;;;;5024526;28;20204;-75
2022/04/13 11:56:42;;;;;;;2.60;2.10;;;;;;;;;;5029310;28;20439;-76
2022/04/13 11:59:13;;;;;;;4.50;2.47;;;;;;;;;;5061531;28;20431;-76
2022/04/13 12:02:00;;;;;;;6.20;2.27;;;;;;;;;;5007071;28;20562;-75
2022/04/13 12:04:26;;;;;;;3.97;2.30;;;;;;;;;;5025251;28;20438;-75
2022/04/13 12:06:52;;;;;;;4.07;2.60;;;;;;;;;;5005563;28;21042;-74
2022/04/13 12:09:18;;;;;;;4.80;2.17;;;;;;;;;;5031906;28;20428;-77
2022/04/13 12:11:49;;;;;;;10.10;3.07;;;;;;;;;;5034041;28;20431;-76
2022/04/13 12:14:28;;;;;;;6.20;2.20;;;;;;;;;;5061260;28;20423;-76
2022/04/13 12:16:56;;;;;;;5.23;2.07;;;;;;;;;;5006359;28;20456;-75
2022/04/13 12:19:48;;;;;;;3.47;2.07;;;;;;;;;;5026757;28;20423;-77
2022/04/13 12:22:15;;;;;;;5.07;2.50;;;;;;;;;;5016601;28;20428;-73
2022/04/13 12:28:04;;;;;;;5.40;2.77;;;;;;;;;;5010569;28;20439;-76
2022/04/13 12:30:46;;;;;;;4.73;2.43;;;;;;;;;;5023167;28;20495;-77
2022/04/13 12:33:21;;;;;;;4.60;2.47;;;;;;;;;;5026233;28;20439;-76
2022/04/13 12:36:02;;;;;;;4.27;2.30;;;;;;;;;;5017891;28;20446;-76
2022/04/13 12:38:33;;;;;;;3.33;2.10;;;;;;;;;;5026371;28;20440;-73
2022/04/13 12:41:09;;;;;;;6.80;2.23;;;;;;;;;;5012555;28;20482;-75
2022/04/13 12:43:37;;;;;;;5.90;2.13;;;;;;;;;;5028522;28;20503;-76
2022/04/13 12:46:17;;;;;;;4.43;2.13;;;;;;;;;;5021823;28;20440;-76
2022/04/13 12:48:47;;;;;;;3.47;1.90;;;;;;;;;;5021194;28;20793;-75
2022/04/13 12:51:28;;;;;;;4.47;2.00;;;;;;;;;;5032903;28;20476;-75
2022/04/13 12:54:01;;;;;;;6.23;2.67;;;;;;;;;;5023007;28;20467;-75
2022/04/13 12:56:33;;;;;;;3.63;2.10;;;;;;;;;;5008781;28;20441;-75
2022/04/13 12:59:20;;;;;;;6.50;2.13;;;;;;;;;;5015149;28;20470;-75
2022/04/13 13:02:04;;;;;;;3.00;2.10;;;;;;;;;;5010758;28;21029;-76
2022/04/13 13:07:33;;;;;;;4.77;2.10;;;;;;;;;;5001696;28;21031;-75
2022/04/13 13:10:02;;;;;;;5.00;2.20;;;;;;;;;;4984627;28;21109;-74
2022/04/13 13:12:28;;;;;;;6.83;2.10;;;;;;;;;;5036249;28;20857;-75
2022/04/13 13:15:17;;;;;;;3.73;1.93;;;;;;;;;;5020577;28;20824;-75
2022/04/13 13:18:04;;;;;;;4.77;2.10;;;;;;;;;;5027076;28;20488;-75
2022/04/13 13:20:33;;;;;;;3.27;2.20;;;;;;;;;;5029083;28;20778;-75
2022/04/13 13:23:12;;;;;;;3.27;1.80;;;;;;;;;;5023702;28;20432;-75
2022/04/13 13:26:02;;;;;;;6.13;1.83;;;;;;;;;;5033780;28;20517;-76
2022/04/13 13:28:28;;;;;;;4.87;2.00;;;;;;;;;;5028243;28;20447;-74
2022/04/13 13:31:20;;;;;;;4.23;2.20;;;;;;;;;;5020217;28;20484;-75
2022/04/13 13:33:55;;;;;;;4.80;1.93;;;;;;;;;;5022778;28;20440;-76
2022/04/13 13:36:33;;;;;;;6.43;2.27;;;;;;;;;;5012062;28;21737;-75
2022/04/13 13:39:02;;;;;;;3.63;2.50;;;;;;;;;;5023884;28;20431;-75
2022/04/13 13:44:40;;;;;;;5.03;2.40;;;;;;;;;;5025096;28;20465;-75
2022/04/13 13:47:07;;;;;;;4.40;2.40;;;;;;;;;;5005226;28;20454;-75
2022/04/13 13:49:34;;;;;;;5.20;2.37;;;;;;;;;;5024798;28;20743;-75
2022/04/13 13:52:00;;;;;;;7.13;2.97;;;;;;;;;;5020795;28;20473;-75
2022/04/13 13:54:27;;;;;;;4.00;2.47;;;;;;;;;;5029194;28;20456;-75
2022/04/13 13:56:53;;;;;;;5.10;2.67;;;;;;;;;;5009058;28;20694;-75
2022/04/13 13:59:20;;;;;;;5.73;2.67;;;;;;;;;;5026434;28;21191;-74
2022/04/13 14:02:19;;;;;;;7.67;3.50;;;;;;;;;;5016262;28;20287;-76
2022/04/13 14:04:54;;;;;;;6.40;3.13;;;;;;;;;;5014740;28;20754;-75
2022/04/13 14:07:20;;;;;;;5.80;2.23;;;;;;;;;;5020083;28;20435;-75
2022/04/13 14:09:47;;;;;;;7.33;2.87;;;;;;;;;;5005010;28;20467;-76
2022/04/13 14:12:13;;;;;;;3.17;2.47;;;;;;;;;;5019165;28;20455;-76
2022/04/13 14:14:40;;;;;;;9.27;2.50;;;;;;;;;;4993944;28;20539;-76
2022/04/13 14:17:08;;;;;;;4.60;2.50;;;;;;;;;;5009837;28;20500;-75
2022/04/13 14:19:34;;;;;;;8.37;2.40;;;;;;;;;;5012409;28;20513;-75
2022/04/13 14:22:01;;;;;;;3.67;2.50;;;;;;;;;;5004754;28;20467;-75
2022/04/13 14:24:27;;;;;;;4.07;2.20;;;;;;;;;;5002318;28;20455;-75
2022/04/13 14:26:53;;;;;;;5.10;4.23;;;;;;;;;;4988604;28;20444;-75
2022/04/13 14:29:19;;;;;;;3.20;2.03;;;;;;;;;;5024558;28;20173;-75
2022/04/13 14:35:11;;;;;;;5.33;2.70;;;;;;;;;;5018817;28;20436;-76
2022/04/13 14:37:48;;;;;;;10.43;2.60;;;;;;;;;;5037458;28;21323;-76
2022/04/13 14:40:14;;;;;;;6.70;2.63;;;;;;;;;;5022402;28;20793;-75
2022/04/13 14:42:40;;;;;;;3.87;2.23;;;;;;;;;;5039892;28;20454;-76
2022/04/13 14:45:07;;;;;;;7.10;2.10;;;;;;;;;;5028725;28;20449;-75
2022/04/13 14:47:37;;;;;;;7.23;2.20;;;;;;;;;;5013198;28;20645;-76
2022/04/13 14:50:03;;;;;;;8.87;2.03;;;;;;;;;;5023073;28;20479;-75
2022/04/13 14:52:38;;;;;;;8.10;2.27;;;;;;;;;;5021198;28;20486;-75
2022/04/13 14:55:06;;;;;;;7.07;1.90;;;;;;;;;;5023324;28;20447;-74
2022/04/13 14:57:51;;;;;;;5.47;3.30;;;;;;;;;;5041830;28;20889;-75
2022/04/13 15:00:20;;;;;;;7.73;2.30;;;;;;;;;;5012737;28;20470;-75
2022/04/13 15:02:53;;;;;;;5.60;2.10;;;;;;;;;;5017280;28;20509;-75
2022/04/13 15:05:19;;;;;;;3.63;1.70;;;;;;;;;;5034106;28;20493;-75
2022/04/13 15:07:46;;;;;;;3.03;1.90;;;;;;;;;;5033186;28;21290;-76
2022/04/13 15:10:19;;;;;;;8.70;2.77;;;;;;;;;;5016399;28;20463;-76
2022/04/13 15:12:45;;;;;;;4.80;2.13;;;;;;;;;;5021633;28;20435;-75
2022/04/13 15:15:33;;;;;;;4.87;2.53;;;;;;;;;;5017908;28;20440;-76
2022/04/13 15:17:59;;;;;;;4.80;2.57;;;;;;;;;;5027234;28;20439;-77
2022/04/13 15:23:33;;;;;;;6.17;2.10;;;;;;;;;;5030781;28;20442;-75
2022/04/13 15:25:59;;;;;;;5.87;2.40;;;;;;;;;;5015223;28;21002;-75
2022/04/13 15:28:25;;;;;;;5.70;2.30;;;;;;;;;;5027154;28;20444;-76
2022/04/13 15:31:21;;;;;;;6.20;1.70;;;;;;;;;;5019193;28;20486;-76
2022/04/13 15:33:48;;;;;;;11.27;2.33;;;;;;;;;;5028448;28;20443;-75
2022/04/13 15:36:34;;;;;;;3.80;2.20;;;;;;;;;;5014944;28;20531;-75
2022/04/13 15:39:13;;;;;;;6.43;2.10;;;;;;;;;;5031195;28;21363;-74
2022/04/13 15:41:48;;;;;;;6.20;2.40;;;;;;;;;;5026254;28;20645;-74
2022/04/13 15:44:20;;;;;;;4.33;2.00;;;;;;;;;;5025840;28;20455;-74
2022/04/13 15:46:50;;;;;;;11.77;2.63;;;;;;;;;;5025459;28;21032;-74